Time;durP1;ratioP1;P1;durP2;ratioP2;P2;SDS_P1;SDS_P2;PMS_P1;PMS_P2;Temp;Humidity;BMP_temperature;BMP_pressure;BME280_temperature;BME280_humidity;BME280_pressure;Samples;Min_cycle;Max_cycle;Signal;HPM_P1;HPM_P2
2022/06/30 00:01:44;;;;;;;3.70;2.95;;;24.30;68.10;;;;;;5093405;28;20024;-76
2022/06/30 00:04:09;;;;;;;8.07;3.50;;;24.40;68.30;;;;;;5093446;28;20374;-76
2022/06/30 00:06:35;;;;;;;6.05;4.10;;;24.30;68.40;;;;;;5093374;28;20107;-76
2022/06/30 00:09:01;;;;;;;4.88;4.38;;;24.30;68.90;;;;;;5093375;28;20020;-76
2022/06/30 00:11:26;;;;;;;4.10;3.72;;;24.20;69.00;;;;;;5093003;28;20028;-76
2022/06/30 00:13:52;;;;;;;4.40;3.80;;;24.10;69.20;;;;;;5093392;28;20024;-76
2022/06/30 00:16:18;;;;;;;8.30;4.30;;;24.10;69.30;;;;;;5093348;28;20471;-76
2022/06/30 00:18:45;;;;;;;6.03;4.28;;;24.10;69.50;;;;;;5093216;28;20433;-76
2022/06/30 00:21:11;;;;;;;4.63;4.00;;;24.00;69.70;;;;;;5096484;28;20024;-76
2022/06/30 00:23:37;;;;;;;6.10;4.47;;;24.00;69.90;;;;;;5097042;28;20020;-76
2022/06/30 00:26:03;;;;;;;4.75;4.25;;;24.00;70.10;;;;;;5096751;28;20026;-76
2022/06/30 00:28:29;;;;;;;6.63;4.95;;;24.00;70.80;;;;;;5096882;28;20111;-76
2022/06/30 00:30:55;;;;;;;5.18;4.50;;;23.90;70.40;;;;;;5096948;28;20016;-76
2022/06/30 00:33:20;;;;;;;7.22;4.80;;;23.90;70.60;;;;;;5096786;28;20118;-76
2022/06/30 00:35:46;;;;;;;6.40;4.13;;;23.80;70.90;;;;;;5096850;28;20027;-76
2022/06/30 00:38:12;;;;;;;5.13;4.38;;;23.80;71.00;;;;;;5096721;28;20077;-76
2022/06/30 00:40:41;;;;;;;5.40;4.55;;;23.80;71.00;;;;;;5096718;28;20020;-76
2022/06/30 00:43:07;;;;;;;6.03;4.82;;;23.80;71.10;;;;;;5096694;28;20024;-76
2022/06/30 00:45:38;;;;;;;4.30;3.85;;;23.80;71.20;;;;;;5096558;28;20016;-76
2022/06/30 00:48:04;;;;;;;6.22;4.22;;;23.80;71.10;;;;;;5096356;28;20483;-76
2022/06/30 00:50:30;;;;;;;6.00;4.72;;;23.80;71.20;;;;;;5096453;28;20410;-75
2022/06/30 00:52:57;;;;;;;6.38;3.97;;;23.80;71.20;;;;;;5096424;28;20032;-75
2022/06/30 00:55:25;;;;;;;10.70;5.15;;;23.80;71.30;;;;;;5096415;28;20031;-76
2022/06/30 00:57:52;;;;;;;5.07;3.90;;;23.80;71.40;;;;;;5096405;28;20035;-76
2022/06/30 01:00:17;;;;;;;5.95;4.82;;;23.70;71.40;;;;;;5096010;28;20475;-77
2022/06/30 01:02:43;;;;;;;7.57;4.72;;;23.70;71.80;;;;;;5096342;28;20039;-76
2022/06/30 01:05:09;;;;;;;7.03;4.47;;;23.70;71.80;;;;;;5096254;28;20027;-77
2022/06/30 01:07:34;;;;;;;5.57;4.55;;;23.70;72.00;;;;;;5095870;28;20024;-76
2022/06/30 01:12:46;;;;;;;5.63;4.93;;;23.70;72.10;;;;;;5096100;28;20124;-76
2022/06/30 01:15:14;;;;;;;4.78;4.38;;;23.70;72.80;;;;;;5096055;28;20024;-77
2022/06/30 01:17:41;;;;;;;5.38;4.88;;;23.60;72.20;;;;;;5095865;28;20020;-76
2022/06/30 01:20:07;;;;;;;5.70;5.03;;;23.70;72.60;;;;;;5095906;28;20107;-76
2022/06/30 01:22:33;;;;;;;7.03;5.03;;;23.70;72.60;;;;;;5095926;28;20031;-76
2022/06/30 01:24:58;;;;;;;6.28;5.38;;;23.60;72.70;;;;;;5095817;28;20024;-76
2022/06/30 01:27:24;;;;;;;8.38;5.05;;;23.60;72.80;;;;;;5095827;28;20035;-76
2022/06/30 01:29:51;;;;;;;5.47;4.57;;;23.60;73.70;;;;;;5095691;28;20148;-76
2022/06/30 01:32:17;;;;;;;5.75;4.47;;;23.60;73.10;;;;;;5094620;28;20024;-76
2022/06/30 01:34:43;;;;;;;7.80;5.07;;;23.50;73.10;;;;;;5095582;28;20024;-76
2022/06/30 01:37:08;;;;;;;8.25;5.95;;;23.50;73.30;;;;;;5095390;28;20459;-76
2022/06/30 01:39:34;;;;;;;5.82;5.22;;;23.50;73.40;;;;;;5095593;28;20035;-77
2022/06/30 01:42:00;;;;;;;8.20;6.90;;;23.50;73.80;;;;;;5095519;28;20546;-77
2022/06/30 01:44:26;;;;;;;6.97;5.53;;;23.40;74.30;;;;;;5095574;28;20028;-77
2022/06/30 01:46:52;;;;;;;7.30;5.15;;;23.30;74.40;;;;;;5095413;28;20104;-76
2022/06/30 01:49:17;;;;;;;6.07;5.43;;;23.30;74.60;;;;;;5094907;28;20112;-76
2022/06/30 01:51:44;;;;;;;5.50;5.00;;;23.30;74.50;;;;;;5094943;28;20111;-76
2022/06/30 01:54:09;;;;;;;4.50;3.97;;;23.30;74.30;;;;;;5094700;28;20024;-76
2022/06/30 01:56:36;;;;;;;5.57;5.00;;;23.30;74.20;;;;;;5094919;28;20542;-76
2022/06/30 01:59:02;;;;;;;5.95;4.70;;;23.40;74.20;;;;;;5094816;28;20418;-76
2022/06/30 02:01:28;;;;;;;8.00;4.57;;;23.40;74.10;;;;;;5094913;28;20028;-77
2022/06/30 02:03:54;;;;;;;5.63;5.13;;;23.50;74.10;;;;;;5094951;28;20081;-77
2022/06/30 02:06:19;;;;;;;5.78;5.22;;;23.50;74.10;;;;;;5094440;28;20426;-76
2022/06/30 02:08:45;;;;;;;6.53;5.45;;;23.50;74.00;;;;;;5094851;28;20028;-77
2022/06/30 02:11:10;;;;;;;5.50;4.88;;;23.50;74.00;;;;;;5094565;28;20448;-76
2022/06/30 02:13:36;;;;;;;5.80;5.10;;;23.50;74.20;;;;;;5094511;28;20040;-77
2022/06/30 02:16:02;;;;;;;6.55;5.45;;;23.60;74.30;;;;;;5094420;28;20017;-76
2022/06/30 02:18:27;;;;;;;9.30;5.18;;;23.50;74.70;;;;;;5094751;28;20475;-76
2022/06/30 02:20:53;;;;;;;6.05;5.32;;;23.60;74.20;;;;;;5094745;28;20466;-76
2022/06/30 02:23:19;;;;;;;6.20;5.60;;;23.60;74.30;;;;;;5094641;28;20415;-77
2022/06/30 02:25:44;;;;;;;6.28;5.60;;;23.60;74.30;;;;;;5094646;28;20070;-76
2022/06/30 02:28:10;;;;;;;6.63;6.03;;;23.60;74.30;;;;;;5094245;28;20031;-76
2022/06/30 02:30:35;;;;;;;5.82;5.28;;;23.60;74.40;;;;;;5094146;28;20111;-76
2022/06/30 02:33:02;;;;;;;6.63;5.95;;;23.60;74.50;;;;;;5094195;28;20040;-77
2022/06/30 02:35:28;;;;;;;5.70;5.28;;;23.50;74.50;;;;;;5094289;28;20016;-76
2022/06/30 02:37:53;;;;;;;6.57;5.40;;;23.50;74.60;;;;;;5094366;28;20402;-76
2022/06/30 02:40:19;;;;;;;7.80;5.80;;;23.50;74.70;;;;;;5094225;28;20459;-76
2022/06/30 02:42:45;;;;;;;6.43;5.82;;;23.50;74.80;;;;;;5094167;28;20382;-76
2022/06/30 02:45:11;;;;;;;6.20;5.70;;;23.50;74.80;;;;;;5093949;28;20024;-76
2022/06/30 02:47:40;;;;;;;7.70;6.57;;;23.50;74.90;;;;;;5093969;28;20038;-76
2022/06/30 02:50:08;;;;;;;7.80;5.47;;;23.50;75.00;;;;;;5093884;28;20047;-76
2022/06/30 02:52:35;;;;;;;7.57;6.18;;;23.50;75.20;;;;;;5093702;28;20046;-76
2022/06/30 02:55:02;;;;;;;7.57;6.28;;;23.50;75.20;;;;;;5093584;28;20023;-76
2022/06/30 02:57:28;;;;;;;5.88;5.35;;;23.50;75.30;;;;;;5093995;28;20084;-76
2022/06/30 02:59:54;;;;;;;9.27;7.00;;;23.50;75.20;;;;;;5093582;28;20024;-77
2022/06/30 03:02:20;;;;;;;6.15;5.53;;;23.50;75.40;;;;;;5093660;28;20463;-77
2022/06/30 03:04:46;;;;;;;7.05;5.65;;;23.50;75.60;;;;;;5093803;28;20031;-77
2022/06/30 03:07:12;;;;;;;7.40;6.70;;;23.40;75.60;;;;;;5093743;28;20028;-77
2022/06/30 03:09:37;;;;;;;7.95;6.53;;;23.40;75.70;;;;;;5093694;28;20031;-77
2022/06/30 03:12:04;;;;;;;6.20;5.70;;;23.40;75.70;;;;;;5093530;28;20073;-77
2022/06/30 03:14:29;;;;;;;6.85;6.25;;;23.40;75.70;;;;;;5093694;28;20031;-77
2022/06/30 03:16:55;;;;;;;6.93;6.07;;;23.40;76.00;;;;;;5093499;28;20020;-77
2022/06/30 03:19:21;;;;;;;6.75;6.05;;;23.40;76.00;;;;;;5093641;28;20028;-77
2022/06/30 03:21:47;;;;;;;6.22;5.63;;;23.30;76.00;;;;;;5093462;28;20417;-77
2022/06/30 03:24:13;;;;;;;6.95;6.28;;;23.30;76.30;;;;;;5093173;28;20016;-77
2022/06/30 03:26:38;;;;;;;7.90;6.72;;;23.30;76.40;;;;;;5093324;28;20493;-77
2022/06/30 03:29:04;;;;;;;6.93;6.10;;;23.30;76.50;;;;;;5093510;28;20020;-77
2022/06/30 03:31:30;;;;;;;9.73;7.13;;;23.30;76.70;;;;;;5093298;28;20531;-77
2022/06/30 03:33:57;;;;;;;10.32;7.03;;;23.20;77.00;;;;;;5093630;28;20028;-77
2022/06/30 03:36:22;;;;;;;7.95;7.15;;;23.20;77.20;;;;;;5093247;28;20020;-77
2022/06/30 03:38:48;;;;;;;7.22;6.53;;;23.20;77.20;;;;;;5093306;28;20035;-77
2022/06/30 03:41:13;;;;;;;7.65;6.95;;;23.20;77.30;;;;;;5093564;28;20017;-77
2022/06/30 03:43:39;;;;;;;6.93;6.32;;;23.10;77.30;;;;;;5093370;28;20017;-77
2022/06/30 03:46:05;;;;;;;7.13;6.53;;;23.10;77.50;;;;;;5093501;28;20031;-77
2022/06/30 03:48:30;;;;;;;8.23;6.32;;;23.10;77.50;;;;;;5092979;28;20119;-76
2022/06/30 03:50:56;;;;;;;7.28;6.68;;;23.10;77.60;;;;;;5093406;28;20107;-77
2022/06/30 03:53:21;;;;;;;7.97;7.28;;;23.10;77.60;;;;;;5093123;28;20463;-77
2022/06/30 03:55:47;;;;;;;8.10;6.50;;;23.20;77.80;;;;;;5096015;28;20016;-77
2022/06/30 03:58:12;;;;;;;7.90;6.47;;;23.20;77.70;;;;;;5097147;28;20032;-77
2022/06/30 04:00:38;;;;;;;9.15;7.85;;;23.10;77.80;;;;;;5096772;28;20390;-77
2022/06/30 04:03:04;;;;;;;9.32;8.25;;;23.10;77.90;;;;;;5097322;28;20024;-77
2022/06/30 04:05:30;;;;;;;8.02;7.22;;;23.10;78.10;;;;;;5097138;28;20020;-77
2022/06/30 04:07:56;;;;;;;8.30;7.50;;;23.20;78.20;;;;;;5096911;28;20051;-77
2022/06/30 04:10:22;;;;;;;8.60;7.80;;;23.10;78.30;;;;;;5096918;28;20359;-77
2022/06/30 04:12:48;;;;;;;11.18;8.02;;;23.10;78.40;;;;;;5096567;28;20028;-77
2022/06/30 04:15:13;;;;;;;11.95;8.65;;;23.10;78.60;;;;;;5097057;28;20016;-77
2022/06/30 04:17:39;;;;;;;11.43;10.25;;;23.10;78.90;;;;;;5096777;28;20024;-77
2022/06/30 04:20:15;;;;;;;11.55;8.57;;;23.10;79.50;;;;;;5096688;28;20024;-77
2022/06/30 04:22:42;;;;;;;10.43;9.40;;;23.10;79.40;;;;;;5096815;28;20360;-77
2022/06/30 04:25:08;;;;;;;9.85;8.88;;;23.00;79.70;;;;;;5096711;28;20111;-77
2022/06/30 04:27:34;;;;;;;10.00;9.00;;;23.00;79.80;;;;;;5096488;28;20024;-77
2022/06/30 04:29:59;;;;;;;10.13;9.23;;;22.90;79.90;;;;;;5096709;28;20020;-77
2022/06/30 04:32:37;;;;;;;13.10;11.70;;;22.90;80.30;;;;;;5096751;28;20036;-77
2022/06/30 04:35:04;;;;;;;12.30;11.15;;;22.90;80.60;;;;;;5096431;28;20051;-77
2022/06/30 04:37:29;;;;;;;11.80;10.43;;;22.80;81.30;;;;;;5096204;28;20028;-77
2022/06/30 04:42:41;;;;;;;10.77;9.77;;;22.70;81.90;;;;;;5064772;28;20463;-77
2022/06/30 04:45:07;;;;;;;12.23;10.88;;;22.70;81.80;;;;;;5096238;28;20080;-77
2022/06/30 04:47:35;;;;;;;12.00;10.43;;;22.70;82.00;;;;;;5095932;28;20073;-77
2022/06/30 04:50:02;;;;;;;13.50;11.88;;;22.70;82.20;;;;;;5095794;28;20526;-77
2022/06/30 04:52:28;;;;;;;13.45;10.70;;;22.70;82.70;;;;;;5095691;28;20410;-77
2022/06/30 04:54:53;;;;;;;12.88;11.25;;;22.70;82.60;;;;;;5095795;28;20017;-77
2022/06/30 04:57:19;;;;;;;4.65;4.20;;;22.60;83.20;;;;;;5095460;28;20077;-84
2022/06/30 04:59:45;;;;;;;3.83;3.50;;;22.60;82.00;;;;;;5094559;28;20501;-80
2022/06/30 05:02:10;;;;;;;9.63;8.55;;;22.70;80.60;;;;;;5095830;28;20028;-75
2022/06/30 05:04:36;;;;;;;10.35;6.65;;;22.80;80.70;;;;;;5092897;28;20646;-76
2022/06/30 05:07:01;;;;;;;10.98;7.00;;;22.80;81.60;;;;;;5091816;28;20024;-74
2022/06/30 05:09:27;;;;;;;7.38;6.63;;;22.80;81.60;;;;;;5092116;28;20108;-76
2022/06/30 05:11:53;;;;;;;7.90;7.10;;;22.90;81.50;;;;;;5092871;28;20127;-76
2022/06/30 05:14:18;;;;;;;9.50;8.57;;;23.00;81.90;;;;;;5094694;28;20055;-80
2022/06/30 05:16:44;;;;;;;9.18;7.38;;;23.00;82.50;;;;;;5093185;28;20028;-81
2022/06/30 05:19:10;;;;;;;9.95;8.95;;;23.00;82.20;;;;;;5092512;28;20122;-80
2022/06/30 05:21:36;;;;;;;8.43;7.53;;;23.10;82.30;;;;;;5092358;28;20067;-81
2022/06/30 05:26:46;;;;;;;13.00;9.35;;;23.10;82.10;;;;;;5091554;28;20081;-79
2022/06/30 05:29:11;;;;;;;8.18;7.38;;;23.20;82.30;;;;;;5093025;28;20028;-80
2022/06/30 05:31:37;;;;;;;11.32;9.77;;;23.20;82.20;;;;;;5092607;28;20031;-78
2022/06/30 05:34:03;;;;;;;9.20;8.23;;;23.30;82.50;;;;;;5092648;28;20395;-80
2022/06/30 05:36:28;;;;;;;12.00;8.85;;;23.30;82.20;;;;;;5092257;28;20608;-77
2022/06/30 05:38:54;;;;;;;10.95;9.27;;;23.40;82.30;;;;;;5092885;28;20042;-76
2022/06/30 05:41:19;;;;;;;14.80;12.48;;;23.40;82.70;;;;;;5091961;28;20023;-78
2022/06/30 05:43:45;;;;;;;13.13;10.23;;;23.40;82.90;;;;;;5093312;28;20032;-77
2022/06/30 05:46:11;;;;;;;12.60;10.57;;;23.40;83.20;;;;;;5093597;28;20460;-77
2022/06/30 05:48:36;;;;;;;9.13;8.23;;;23.30;83.30;;;;;;5093484;28;20082;-78
2022/06/30 05:51:02;;;;;;;13.10;11.90;;;23.40;83.20;;;;;;5087278;28;20028;-82
2022/06/30 05:53:27;;;;;;;11.05;9.60;;;23.40;83.20;;;;;;5092882;28;20055;-81
2022/06/30 05:55:53;;;;;;;15.63;11.35;;;23.50;83.20;;;;;;5093666;28;20039;-80
2022/06/30 05:58:19;;;;;;;14.60;12.38;;;23.60;83.50;;;;;;5090969;28;20466;-80
2022/06/30 06:00:44;;;;;;;14.43;12.25;;;23.60;83.20;;;;;;5093651;28;20106;-80
2022/06/30 06:03:10;;;;;;;17.05;13.90;;;23.60;83.30;;;;;;5093713;28;20028;-80
2022/06/30 06:05:36;;;;;;;15.15;11.63;;;23.60;83.50;;;;;;5093648;28;20073;-80
2022/06/30 06:08:06;;;;;;;13.32;11.98;;;23.60;83.50;;;;;;5093101;28;20035;-80
2022/06/30 06:10:32;;;;;;;16.55;14.82;;;23.70;84.10;;;;;;5092576;28;20534;-81
2022/06/30 06:12:57;;;;;;;16.30;13.88;;;23.70;83.60;;;;;;5093763;28;20366;-79
2022/06/30 06:15:23;;;;;;;17.63;15.75;;;23.70;83.60;;;;;;5092970;28;20020;-80
2022/06/30 06:17:49;;;;;;;21.90;16.17;;;23.70;84.00;;;;;;5092037;28;20434;-82
2022/06/30 06:20:17;;;;;;;15.57;12.07;;;23.70;84.30;;;;;;5092475;28;20032;-81
2022/06/30 06:22:44;;;;;;;17.25;12.57;;;23.70;84.10;;;;;;5092780;28;20036;-79
2022/06/30 06:25:11;;;;;;;16.60;13.15;;;23.70;84.40;;;;;;5092467;28;20035;-78
2022/06/30 06:27:37;;;;;;;16.88;12.90;;;23.80;84.70;;;;;;5092609;28;20032;-75
2022/06/30 06:30:05;;;;;;;12.90;10.27;;;23.80;84.50;;;;;;5092719;28;20027;-81
2022/06/30 06:32:30;;;;;;;15.52;12.02;;;23.90;84.30;;;;;;5092341;28;20043;-81
2022/06/30 06:34:57;;;;;;;15.93;12.88;;;24.00;84.20;;;;;;5091499;28;20036;-82
2022/06/30 06:37:23;;;;;;;14.82;13.25;;;24.10;83.00;;;;;;5092059;28;20483;-78
2022/06/30 06:39:48;;;;;;;15.07;13.23;;;24.10;82.60;;;;;;5091013;28;20034;-80
2022/06/30 06:42:14;;;;;;;17.02;13.90;;;24.10;82.60;;;;;;5092442;28;20024;-80
2022/06/30 06:44:39;;;;;;;16.42;12.88;;;24.10;82.10;;;;;;5092337;28;20392;-79
2022/06/30 06:47:06;;;;;;;16.75;13.55;;;24.20;82.10;;;;;;5092429;28;20510;-80
2022/06/30 06:49:32;;;;;;;13.90;12.38;;;24.20;82.00;;;;;;5091174;28;20163;-80
2022/06/30 06:51:57;;;;;;;14.43;11.45;;;24.30;81.80;;;;;;5091752;28;20047;-85
2022/06/30 06:54:23;;;;;;;14.38;11.23;;;24.30;82.00;;;;;;5083472;28;20174;-80
2022/06/30 06:56:49;;;;;;;13.48;10.65;;;24.30;81.80;;;;;;5090187;28;20016;-81
2022/06/30 06:59:16;;;;;;;14.55;12.25;;;24.30;81.80;;;;;;5091425;28;20391;-81
2022/06/30 07:01:42;;;;;;;12.27;10.40;;;24.40;81.60;;;;;;5091945;28;20050;-81
2022/06/30 07:04:07;;;;;;;18.08;13.60;;;24.40;81.80;;;;;;5091656;28;20539;-79
2022/06/30 07:06:33;;;;;;;14.27;12.30;;;24.50;81.60;;;;;;5092933;28;20032;-79
2022/06/30 07:08:59;;;;;;;16.15;12.63;;;24.50;81.10;;;;;;5092044;28;20023;-80
2022/06/30 07:11:25;;;;;;;15.13;11.55;;;24.50;81.50;;;;;;5091387;28;20054;-80
2022/06/30 07:13:51;;;;;;;15.80;11.73;;;24.50;81.60;;;;;;5091697;28;20027;-80
2022/06/30 07:16:17;;;;;;;15.48;11.75;;;24.50;81.30;;;;;;5091422;28;20114;-81
2022/06/30 07:18:43;;;;;;;14.40;12.90;;;24.60;81.40;;;;;;5091943;28;20063;-83
2022/06/30 07:21:08;;;;;;;16.67;13.70;;;24.60;81.00;;;;;;5091589;28;20445;-80
2022/06/30 07:23:34;;;;;;;15.40;12.75;;;24.60;80.90;;;;;;5091402;28;20036;-81
2022/06/30 07:25:59;;;;;;;19.08;12.05;;;24.60;81.30;;;;;;5091676;28;20103;-81
2022/06/30 07:28:26;;;;;;;15.52;12.75;;;24.70;81.50;;;;;;5091594;28;20047;-81
2022/06/30 07:30:52;;;;;;;14.38;12.88;;;24.70;81.40;;;;;;5090869;28;20040;-80
2022/06/30 07:33:18;;;;;;;21.02;14.45;;;24.80;81.40;;;;;;5091563;28;20036;-80
2022/06/30 07:35:44;;;;;;;17.55;13.90;;;24.80;81.90;;;;;;5091824;28;20020;-81
2022/06/30 07:38:09;;;;;;;15.85;14.15;;;24.80;81.30;;;;;;5091712;28;20024;-83
2022/06/30 07:40:35;;;;;;;19.13;15.68;;;24.80;80.70;;;;;;5088985;28;20016;-74
2022/06/30 07:43:01;;;;;;;17.00;15.20;;;24.80;81.40;;;;;;5098963;28;20443;-75
2022/06/30 07:45:26;;;;;;;17.48;14.57;;;24.90;81.30;;;;;;5113534;28;20043;-75
2022/06/30 07:47:53;;;;;;;20.48;14.40;;;24.90;80.90;;;;;;5098609;28;20016;-77
2022/06/30 07:50:19;;;;;;;17.77;14.45;;;24.90;80.40;;;;;;5093037;28;20048;-79
2022/06/30 07:52:45;;;;;;;19.52;13.50;;;24.90;80.30;;;;;;5091732;28;20046;-78
2022/06/30 07:55:11;;;;;;;15.68;12.88;;;24.90;80.70;;;;;;5091063;28;20016;-78
2022/06/30 07:57:38;;;;;;;17.50;14.00;;;25.00;80.90;;;;;;5091143;28;20051;-82
2022/06/30 08:00:08;;;;;;;22.67;15.23;;;25.10;81.40;;;;;;5091479;28;20103;-81
2022/06/30 08:02:34;;;;;;;19.38;14.93;;;25.20;81.00;;;;;;5088905;28;20490;-80
2022/06/30 08:04:59;;;;;;;18.40;15.60;;;25.20;80.50;;;;;;5091451;28;20020;-80
2022/06/30 08:07:25;;;;;;;17.45;14.75;;;25.20;79.60;;;;;;5091721;28;20048;-87
2022/06/30 08:09:50;;;;;;;18.73;15.18;;;25.20;80.10;;;;;;5091614;28;20039;-86
2022/06/30 08:12:16;;;;;;;17.90;14.52;;;25.10;79.70;;;;;;5091400;28;20036;-88
2022/06/30 08:14:42;;;;;;;19.27;16.05;;;25.10;80.30;;;;;;5091270;28;20418;-88
2022/06/30 08:17:07;;;;;;;18.88;15.63;;;25.10;80.50;;;;;;5091254;28;20027;-77
2022/06/30 08:19:33;;;;;;;20.67;16.05;;;25.10;81.80;;;;;;5091310;28;20387;-82
2022/06/30 08:21:59;;;;;;;20.00;14.70;;;25.20;81.60;;;;;;5090985;28;20035;-84
2022/06/30 08:24:24;;;;;;;17.23;13.85;;;25.20;81.40;;;;;;5091689;28;20035;-84
2022/06/30 08:26:50;;;;;;;20.33;13.60;;;25.20;81.00;;;;;;5089707;28;20024;-84
2022/06/30 08:29:16;;;;;;;17.60;13.55;;;25.20;80.90;;;;;;5089275;28;20020;-77
2022/06/30 08:31:42;;;;;;;18.77;13.45;;;25.10;81.00;;;;;;5089208;28;20028;-77
2022/06/30 08:34:07;;;;;;;14.95;12.45;;;25.20;81.60;;;;;;5090301;28;20082;-76
2022/06/30 08:36:33;;;;;;;16.15;12.93;;;25.20;81.60;;;;;;5090071;28;20103;-76
2022/06/30 08:38:59;;;;;;;17.10;13.95;;;25.40;81.70;;;;;;5089658;28;20062;-75
2022/06/30 08:44:12;;;;;;;15.88;12.25;;;25.50;82.00;;;;;;5095100;28;20027;-82
2022/06/30 08:46:38;;;;;;;18.30;12.45;;;25.50;81.60;;;;;;5094435;28;20027;-81
2022/06/30 08:49:04;;;;;;;15.45;11.88;;;25.60;81.70;;;;;;5093919;28;20036;-82
2022/06/30 08:51:34;;;;;;;15.68;12.82;;;25.70;82.00;;;;;;5093945;28;20032;-77
2022/06/30 08:54:01;;;;;;;16.83;12.05;;;25.80;82.00;;;;;;5092483;28;20063;-77
2022/06/30 08:56:34;;;;;;;16.27;10.90;;;25.90;81.20;;;;;;5094436;28;20020;-83
2022/06/30 08:59:02;;;;;;;15.15;11.55;;;25.90;81.40;;;;;;5093852;28;20027;-84
2022/06/30 09:01:28;;;;;;;15.60;9.68;;;25.90;81.10;;;;;;5094344;28;20115;-84
2022/06/30 09:03:55;;;;;;;12.20;8.65;;;26.00;81.40;;;;;;5094051;28;20111;-84
2022/06/30 09:06:21;;;;;;;12.13;8.30;;;26.00;80.80;;;;;;5093721;28;20475;-82
2022/06/30 09:08:47;;;;;;;12.18;7.07;;;26.10;80.80;;;;;;5093761;28;20043;-81
2022/06/30 09:11:13;;;;;;;9.57;5.55;;;26.20;80.30;;;;;;5091142;28;20468;-83
2022/06/30 09:13:44;;;;;;;5.95;3.40;;;26.20;78.40;;;;;;5092526;28;20040;-84
2022/06/30 09:16:11;;;;;;;12.47;4.00;;;26.40;74.00;;;;;;5093167;28;20051;-84
2022/06/30 09:18:37;;;;;;;9.30;3.17;;;26.40;73.30;;;;;;5090327;28;20270;-84
2022/06/30 09:21:17;;;;;;;8.73;3.45;;;26.50;72.90;;;;;;5092795;28;20032;-85
2022/06/30 09:23:44;;;;;;;5.22;2.70;;;26.50;70.70;;;;;;5091939;28;20030;-85
2022/06/30 09:26:17;;;;;;;6.72;2.38;;;26.60;70.60;;;;;;5094268;28;20031;-82
2022/06/30 09:28:55;;;;;;;5.18;2.20;;;26.60;70.70;;;;;;5091445;28;20020;-80
2022/06/30 09:31:39;;;;;;;4.90;2.30;;;26.60;69.40;;;;;;5092983;28;20028;-83
2022/06/30 09:34:20;;;;;;;3.60;1.77;;;26.60;69.70;;;;;;5093838;28;20046;-83
2022/06/30 09:36:48;;;;;;;4.20;1.73;;;26.70;70.20;;;;;;5094122;28;20027;-87
2022/06/30 09:39:15;;;;;;;4.50;1.95;;;26.80;68.30;;;;;;5094146;28;20051;-82
2022/06/30 09:41:43;;;;;;;8.52;2.20;;;26.80;68.40;;;;;;5093540;28;20051;-80
2022/06/30 09:44:29;;;;;;;7.43;1.90;;;26.80;69.70;;;;;;5093731;28;20130;-81
2022/06/30 09:47:06;;;;;;;6.55;2.08;;;26.90;70.60;;;;;;5093765;28;20023;-81
2022/06/30 09:49:41;;;;;;;10.77;2.50;;;27.00;71.90;;;;;;5093471;28;20051;-80
2022/06/30 09:52:26;;;;;;;5.22;2.42;;;27.00;72.60;;;;;;5092267;28;20028;-77
2022/06/30 09:54:56;;;;;;;6.38;2.63;;;27.00;72.80;;;;;;5091505;28;20040;-81
2022/06/30 09:57:24;;;;;;;8.15;2.65;;;27.00;72.50;;;;;;5091458;28;20024;-75
2022/06/30 10:00:09;;;;;;;6.65;2.50;;;27.10;72.20;;;;;;5092045;28;20055;-77
2022/06/30 10:02:41;;;;;;;6.10;1.95;;;27.20;72.20;;;;;;5093156;28;20028;-74
2022/06/30 10:05:09;;;;;;;8.50;2.45;;;27.20;72.20;;;;;;5093215;28;20028;-75
2022/06/30 10:07:35;;;;;;;6.05;2.25;;;27.20;72.30;;;;;;5092563;28;20040;-74
2022/06/30 10:10:04;;;;;;;7.05;2.60;;;27.20;72.00;;;;;;5091147;28;20090;-74
2022/06/30 10:12:30;;;;;;;8.88;2.17;;;27.20;71.70;;;;;;5092983;28;20513;-74
2022/06/30 10:14:58;;;;;;;7.70;2.10;;;27.30;72.10;;;;;;5093087;28;20127;-74
2022/06/30 10:17:30;;;;;;;6.95;2.30;;;27.40;71.40;;;;;;5084098;28;20059;-74
2022/06/30 10:19:56;;;;;;;8.98;2.40;;;27.40;71.30;;;;;;5093246;28;20399;-74
2022/06/30 10:22:23;;;;;;;9.55;3.22;;;27.50;71.50;;;;;;5093033;28;20031;-74
2022/06/30 10:24:51;;;;;;;8.00;2.28;;;27.60;72.20;;;;;;5092728;28;20032;-74
2022/06/30 10:27:18;;;;;;;6.35;2.20;;;27.70;71.80;;;;;;5090049;28;20028;-74
2022/06/30 10:30:06;;;;;;;5.70;2.20;;;27.70;71.00;;;;;;5092830;28;20070;-74
2022/06/30 10:32:51;;;;;;;6.32;2.55;;;27.70;70.80;;;;;;5092247;28;20098;-74
2022/06/30 10:35:29;;;;;;;5.75;2.38;;;27.70;71.40;;;;;;5092412;28;20028;-74
2022/06/30 10:37:59;;;;;;;7.47;2.95;;;27.70;71.60;;;;;;5091937;28;20044;-78
2022/06/30 10:40:45;;;;;;;5.43;2.95;;;27.70;71.30;;;;;;5093829;28;20028;-78
2022/06/30 10:43:10;;;;;;;7.07;2.63;;;27.70;72.30;;;;;;5092442;28;20383;-80
2022/06/30 10:45:54;;;;;;;9.80;3.38;;;27.80;72.20;;;;;;5093575;28;20024;-81
2022/06/30 10:48:20;;;;;;;9.10;3.15;;;27.90;71.90;;;;;;5090878;28;20101;-80
2022/06/30 10:50:46;;;;;;;7.97;2.30;;;27.90;71.70;;;;;;5091555;28;20024;-80
2022/06/30 10:53:22;;;;;;;6.78;2.30;;;28.00;71.90;;;;;;5092139;28;20082;-80
2022/06/30 10:55:54;;;;;;;7.43;2.53;;;28.10;72.00;;;;;;5091044;28;20463;-82
2022/06/30 10:58:22;;;;;;;;;;;28.10;71.10;;;;;;5092636;28;20551;-75
2022/06/30 11:01:03;;;;;;;6.38;1.70;;;28.20;71.30;;;;;;5092592;28;20104;-74
2022/06/30 11:03:34;;;;;;;5.03;2.42;;;28.30;71.70;;;;;;5073544;28;20357;-75
2022/06/30 11:06:09;;;;;;;6.97;3.00;;;28.40;70.80;;;;;;5081180;28;20027;-75
2022/06/30 11:08:48;;;;;;;4.78;2.22;;;28.40;70.40;;;;;;5092107;28;20107;-74
2022/06/30 11:11:22;;;;;;;7.20;3.15;;;28.40;70.40;;;;;;5093827;28;20035;-74
2022/06/30 11:14:01;;;;;;;5.13;2.63;;;28.40;69.90;;;;;;5092878;28;20157;-74
2022/06/30 11:16:27;;;;;;;8.30;2.33;;;28.30;69.50;;;;;;5093144;28;20471;-75
2022/06/30 11:18:53;;;;;;;9.30;2.30;;;28.20;69.80;;;;;;5093283;28;20055;-74
2022/06/30 11:21:20;;;;;;;7.20;2.38;;;28.20;70.20;;;;;;5092503;28;20124;-73
2022/06/30 11:23:47;;;;;;;6.93;2.10;;;28.20;70.10;;;;;;5073100;28;20035;-74
2022/06/30 11:29:00;;;;;;;7.10;2.70;;;28.20;70.50;;;;;;5072522;28;20508;-74
2022/06/30 11:31:32;;;;;;;7.97;1.90;;;28.20;70.20;;;;;;5072904;28;20021;-74
2022/06/30 11:34:08;;;;;;;6.28;1.92;;;28.30;70.20;;;;;;5072876;28;20067;-74
2022/06/30 11:36:35;;;;;;;5.50;1.48;;;28.40;69.60;;;;;;5072895;28;20042;-74
2022/06/30 11:39:20;;;;;;;5.75;2.03;;;28.40;69.00;;;;;;5073290;28;20047;-75
2022/06/30 11:41:56;;;;;;;4.85;1.17;;;28.50;69.70;;;;;;5073431;28;20238;-74
2022/06/30 11:44:32;;;;;;;7.60;1.23;;;28.60;65.40;;;;;;5072559;28;20031;-75
2022/06/30 11:46:59;;;;;;;4.20;1.17;;;28.70;64.20;;;;;;5072924;28;20496;-74
2022/06/30 11:49:27;;;;;;;5.30;1.10;;;28.80;65.20;;;;;;5088963;28;20048;-75
2022/06/30 11:51:54;;;;;;;5.88;0.75;;;28.80;64.00;;;;;;5092566;28;20099;-76
2022/06/30 11:54:26;;;;;;;3.00;0.85;;;28.90;63.40;;;;;;5092797;28;20016;-76
2022/06/30 11:56:54;;;;;;;4.18;1.10;;;28.90;62.40;;;;;;5092953;28;20047;-75
2022/06/30 11:59:21;;;;;;;6.05;1.13;;;29.00;62.40;;;;;;5093084;28;20035;-75
2022/06/30 12:02:03;;;;;;;3.78;1.73;;;29.10;63.60;;;;;;5093252;28;20089;-75
2022/06/30 12:04:29;;;;;;;5.90;1.10;;;29.10;62.80;;;;;;5093428;28;20109;-75
2022/06/30 12:06:55;;;;;;;4.25;1.10;;;29.00;64.50;;;;;;5093054;28;20050;-74
2022/06/30 12:09:21;;;;;;;6.97;1.63;;;29.10;63.50;;;;;;5093260;28;20024;-75
2022/06/30 12:11:46;;;;;;;2.50;0.98;;;29.10;62.90;;;;;;5093145;28;20017;-75
2022/06/30 12:14:12;;;;;;;4.68;1.08;;;29.20;63.00;;;;;;5092711;28;20031;-75
2022/06/30 12:16:38;;;;;;;4.50;1.10;;;29.40;63.60;;;;;;5095410;28;20058;-75
2022/06/30 12:19:03;;;;;;;5.15;1.17;;;29.60;63.90;;;;;;5096837;28;20019;-75
2022/06/30 12:21:29;;;;;;;6.13;1.00;;;29.60;60.40;;;;;;5096839;28;20028;-75
2022/06/30 12:23:55;;;;;;;7.40;1.15;;;29.60;61.70;;;;;;5096751;28;20386;-76
2022/06/30 12:26:22;;;;;;;7.65;1.30;;;29.70;60.20;;;;;;5096664;28;20024;-74
2022/06/30 12:28:52;;;;;;;8.00;1.08;;;29.70;61.20;;;;;;5096656;28;20123;-74
2022/06/30 12:31:28;;;;;;;4.05;0.93;;;29.80;60.90;;;;;;5096396;28;20471;-74
2022/06/30 12:33:56;;;;;;;3.53;0.90;;;29.90;60.70;;;;;;5096543;28;20039;-74
2022/06/30 12:36:30;;;;;;;8.23;1.10;;;30.00;61.20;;;;;;5096271;28;20214;-74
2022/06/30 12:38:57;;;;;;;3.25;0.90;;;30.10;61.90;;;;;;5096238;28;20107;-73
2022/06/30 12:41:23;;;;;;;3.97;1.10;;;30.10;61.30;;;;;;5096340;28;20063;-74
2022/06/30 12:43:51;;;;;;;3.28;0.65;;;30.10;60.00;;;;;;5096247;28;20024;-74
2022/06/30 12:46:17;;;;;;;4.82;1.10;;;29.80;58.90;;;;;;5100733;28;20054;-76
2022/06/30 12:48:52;;;;;;;4.97;0.95;;;29.60;59.70;;;;;;5105231;28;20043;-75
2022/06/30 12:51:30;;;;;;;4.38;0.80;;;29.50;60.80;;;;;;5095545;28;20036;-75
2022/06/30 12:54:07;;;;;;;6.90;1.13;;;29.40;60.40;;;;;;5094179;28;20032;-75
2022/06/30 12:56:34;;;;;;;5.35;0.88;;;29.50;59.50;;;;;;5094544;28;20042;-75